sensor_id;sensor_type;location;lat;lon;timestamp;pressure;altitude;pressure_sealevel;temperature;humidity
61484;BME280;47349;55.640;37.692;2024-01-06T00:42:51;98818.66;;;-18.80;89.40
61484;BME280;47349;55.640;37.692;2024-01-06T00:45:18;98811.84;;;-18.81;89.46
61484;BME280;47349;55.640;37.692;2024-01-06T00:47:46;98817.00;;;-18.84;89.46
61484;BME280;47349;55.640;37.692;2024-01-06T01:20:07;98846.03;;;-18.23;87.42
61484;BME280;47349;55.640;37.692;2024-01-06T01:22:35;98845.25;;;-18.28;87.35
61484;BME280;47349;55.640;37.692;2024-01-06T01:25:04;98819.81;;;-18.36;86.79
61484;BME280;47349;55.640;37.692;2024-01-06T01:27:35;98821.41;;;-18.27;86.72
61484;BME280;47349;55.640;37.692;2024-01-06T02:11:31;98798.53;;;-18.39;85.98
61484;BME280;47349;55.640;37.692;2024-01-06T02:47:08;98835.09;;;-18.33;88.62
61484;BME280;47349;55.640;37.692;2024-01-06T03:00:02;98807.13;;;-18.45;89.63
61484;BME280;47349;55.640;37.692;2024-01-06T03:02:31;98821.59;;;-18.41;89.28
61484;BME280;47349;55.640;37.692;2024-01-06T03:04:59;98806.19;;;-18.38;89.17
61484;BME280;47349;55.640;37.692;2024-01-06T03:07:26;98814.75;;;-18.40;89.24
61484;BME280;47349;55.640;37.692;2024-01-06T03:09:53;98812.31;;;-18.50;89.30
61484;BME280;47349;55.640;37.692;2024-01-06T03:12:21;98801.19;;;-18.46;89.30
61484;BME280;47349;55.640;37.692;2024-01-06T03:14:50;98836.03;;;-18.40;89.78
61484;BME280;47349;55.640;37.692;2024-01-06T03:17:18;98802.78;;;-18.38;89.37
61484;BME280;47349;55.640;37.692;2024-01-06T03:19:47;98811.25;;;-18.33;89.01
61484;BME280;47349;55.640;37.692;2024-01-06T03:22:16;98796.72;;;-18.30;88.88
61484;BME280;47349;55.640;37.692;2024-01-06T03:43:15;98817.94;;;-18.22;88.54
61484;BME280;47349;55.640;37.692;2024-01-06T03:46:13;98819.56;;;-18.18;89.15
61484;BME280;47349;55.640;37.692;2024-01-06T03:48:40;98820.41;;;-18.15;88.48
61484;BME280;47349;55.640;37.692;2024-01-06T04:12:13;98832.41;;;-18.21;88.47
61484;BME280;47349;55.640;37.692;2024-01-06T05:15:59;98846.81;;;-18.15;87.30
61484;BME280;47349;55.640;37.692;2024-01-06T05:31:55;98849.53;;;-18.29;88.73
61484;BME280;47349;55.640;37.692;2024-01-06T05:34:22;98879.34;;;-18.28;88.31
61484;BME280;47349;55.640;37.692;2024-01-06T05:36:52;98836.88;;;-18.36;88.37
61484;BME280;47349;55.640;37.692;2024-01-06T05:39:21;98842.81;;;-18.37;88.12
61484;BME280;47349;55.640;37.692;2024-01-06T05:41:53;98858.88;;;-18.25;88.00
61484;BME280;47349;55.640;37.692;2024-01-06T05:44:21;98863.22;;;-18.33;88.93
61484;BME280;47349;55.640;37.692;2024-01-06T05:46:49;98852.06;;;-18.26;88.43
61484;BME280;47349;55.640;37.692;2024-01-06T05:49:18;98853.84;;;-18.34;87.88
61484;BME280;47349;55.640;37.692;2024-01-06T05:51:48;98847.03;;;-18.32;89.38
61484;BME280;47349;55.640;37.692;2024-01-06T05:54:16;98857.09;;;-18.20;88.38
61484;BME280;47349;55.640;37.692;2024-01-06T05:56:43;98853.78;;;-18.28;88.12
61484;BME280;47349;55.640;37.692;2024-01-06T05:59:13;98869.88;;;-18.20;89.00
61484;BME280;47349;55.640;37.692;2024-01-06T06:01:43;98834.16;;;-18.26;88.26
61484;BME280;47349;55.640;37.692;2024-01-06T06:04:25;98858.56;;;-18.02;88.62
61484;BME280;47349;55.640;37.692;2024-01-06T06:07:09;98862.66;;;-17.90;88.08
61484;BME280;47349;55.640;37.692;2024-01-06T06:09:37;98862.56;;;-17.82;87.88
61484;BME280;47349;55.640;37.692;2024-01-06T06:12:21;98850.78;;;-17.93;86.41
61484;BME280;47349;55.640;37.692;2024-01-06T06:15:03;98884.81;;;-17.87;86.44
61484;BME280;47349;55.640;37.692;2024-01-06T06:17:45;98877.94;;;-17.82;86.28
61484;BME280;47349;55.640;37.692;2024-01-06T06:20:29;98871.13;;;-17.83;86.13
61484;BME280;47349;55.640;37.692;2024-01-06T06:23:02;98876.88;;;-17.71;86.15
61484;BME280;47349;55.640;37.692;2024-01-06T06:25:31;98870.84;;;-17.67;85.81
61484;BME280;47349;55.640;37.692;2024-01-06T06:28:05;98903.19;;;-17.59;85.51
61484;BME280;47349;55.640;37.692;2024-01-06T06:30:36;98881.84;;;-17.61;85.58
61484;BME280;47349;55.640;37.692;2024-01-06T06:33:06;98877.63;;;-17.64;85.97
61484;BME280;47349;55.640;37.692;2024-01-06T06:35:35;98888.56;;;-17.53;85.19
61484;BME280;47349;55.640;37.692;2024-01-06T06:38:17;98884.28;;;-17.52;86.28
61484;BME280;47349;55.640;37.692;2024-01-06T06:40:50;98898.78;;;-17.51;85.75
61484;BME280;47349;55.640;37.692;2024-01-06T06:43:33;98876.56;;;-17.49;85.59
61484;BME280;47349;55.640;37.692;2024-01-06T06:46:02;98898.78;;;-17.51;85.00
61484;BME280;47349;55.640;37.692;2024-01-06T07:38:28;98904.28;;;-16.71;82.13
61484;BME280;47349;55.640;37.692;2024-01-06T07:41:06;98888.91;;;-16.71;82.23
61484;BME280;47349;55.640;37.692;2024-01-06T07:43:58;98909.41;;;-16.71;81.38
61484;BME280;47349;55.640;37.692;2024-01-06T07:46:44;98919.44;;;-16.58;81.56
61484;BME280;47349;55.640;37.692;2024-01-06T07:49:31;98910.06;;;-16.60;82.46
61484;BME280;47349;55.640;37.692;2024-01-06T07:52:02;98908.38;;;-16.61;81.67
61484;BME280;47349;55.640;37.692;2024-01-06T07:54:33;98903.38;;;-16.68;81.63
61484;BME280;47349;55.640;37.692;2024-01-06T07:57:12;98890.78;;;-16.79;82.12
61484;BME280;47349;55.640;37.692;2024-01-06T07:59:53;98898.34;;;-16.73;82.03
61484;BME280;47349;55.640;37.692;2024-01-06T08:02:46;98907.75;;;-16.72;81.69
61484;BME280;47349;55.640;37.692;2024-01-06T08:05:29;98883.72;;;-16.68;82.61
61484;BME280;47349;55.640;37.692;2024-01-06T08:08:13;98905.75;;;-16.57;83.01
61484;BME280;47349;55.640;37.692;2024-01-06T08:11:03;98880.22;;;-16.62;82.73
61484;BME280;47349;55.640;37.692;2024-01-06T08:13:46;98875.03;;;-16.61;82.17
61484;BME280;47349;55.640;37.692;2024-01-06T08:16:19;98855.66;;;-16.72;82.33
61484;BME280;47349;55.640;37.692;2024-01-06T08:19:03;98867.59;;;-16.73;82.71
61484;BME280;47349;55.640;37.692;2024-01-06T08:21:46;98894.56;;;-16.53;82.78
61484;BME280;47349;55.640;37.692;2024-01-06T08:24:19;98869.91;;;-16.61;82.42
61484;BME280;47349;55.640;37.692;2024-01-06T08:27:10;98883.19;;;-16.40;83.11
61484;BME280;47349;55.640;37.692;2024-01-06T08:29:56;98874.72;;;-16.42;82.42
61484;BME280;47349;55.640;37.692;2024-01-06T08:32:32;98868.34;;;-16.24;82.46
61484;BME280;47349;55.640;37.692;2024-01-06T08:35:00;98884.72;;;-16.30;82.11
61484;BME280;47349;55.640;37.692;2024-01-06T08:37:33;98867.03;;;-16.44;82.65
61484;BME280;47349;55.640;37.692;2024-01-06T08:40:13;98877.34;;;-16.47;83.25
61484;BME280;47349;55.640;37.692;2024-01-06T08:42:51;98887.50;;;-16.41;82.86
61484;BME280;47349;55.640;37.692;2024-01-06T08:45:26;98909.97;;;-16.10;83.61
61484;BME280;47349;55.640;37.692;2024-01-06T08:48:19;98884.03;;;-15.96;82.67
61484;BME280;47349;55.640;37.692;2024-01-06T08:51:12;98864.34;;;-15.96;81.15
61484;BME280;47349;55.640;37.692;2024-01-06T08:53:58;98859.81;;;-15.83;80.88
61484;BME280;47349;55.640;37.692;2024-01-06T08:56:34;98855.56;;;-15.84;80.16
61484;BME280;47349;55.640;37.692;2024-01-06T08:59:08;98889.84;;;-15.49;80.59
61484;BME280;47349;55.640;37.692;2024-01-06T09:01:52;98861.25;;;-15.70;80.47
61484;BME280;47349;55.640;37.692;2024-01-06T09:04:42;98884.84;;;-15.56;80.20
61484;BME280;47349;55.640;37.692;2024-01-06T09:07:39;98846.63;;;-15.68;80.08
61484;BME280;47349;55.640;37.692;2024-01-06T09:10:22;98842.00;;;-15.53;79.93
61484;BME280;47349;55.640;37.692;2024-01-06T09:13:08;98842.00;;;-15.53;80.12
61484;BME280;47349;55.640;37.692;2024-01-06T09:15:58;98844.34;;;-15.44;80.16
61484;BME280;47349;55.640;37.692;2024-01-06T09:18:33;98830.56;;;-15.40;nan
61484;BME280;47349;55.640;37.692;2024-01-06T09:21:30;98853.56;;;-15.36;79.78
61484;BME280;47349;55.640;37.692;2024-01-06T09:24:13;98826.31;;;-15.43;79.87
61484;BME280;47349;55.640;37.692;2024-01-06T09:26:59;98855.31;;;-15.36;79.95
61484;BME280;47349;55.640;37.692;2024-01-06T09:29:41;98852.53;;;-15.28;80.16
61484;BME280;47349;55.640;37.692;2024-01-06T09:32:52;98834.84;;;-15.41;80.79
61484;BME280;47349;55.640;37.692;2024-01-06T09:35:36;98843.19;;;-15.33;81.50
61484;BME280;47349;55.640;37.692;2024-01-06T09:38:20;98849.50;;;-15.44;81.62
61484;BME280;47349;55.640;37.692;2024-01-06T09:41:05;98842.56;;;-15.41;82.10
61484;BME280;47349;55.640;37.692;2024-01-06T09:43:47;98848.53;;;-15.40;83.30
61484;BME280;47349;55.640;37.692;2024-01-06T09:46:35;98831.44;;;-15.41;83.55
61484;BME280;47349;55.640;37.692;2024-01-06T09:49:44;98823.84;;;-15.46;83.35
61484;BME280;47349;55.640;37.692;2024-01-06T09:52:43;98819.47;;;-15.42;82.62
61484;BME280;47349;55.640;37.692;2024-01-06T09:55:39;98853.03;;;-15.14;83.58
61484;BME280;47349;55.640;37.692;2024-01-06T09:58:57;98851.19;;;-15.08;83.26
61484;BME280;47349;55.640;37.692;2024-01-06T10:02:05;98837.50;;;-15.10;82.52
61484;BME280;47349;55.640;37.692;2024-01-06T10:04:59;98835.22;;;-15.20;83.26
61484;BME280;47349;55.640;37.692;2024-01-06T10:08:04;98826.50;;;-15.15;82.78
61484;BME280;47349;55.640;37.692;2024-01-06T10:10:46;98818.91;;;-15.18;82.78
61484;BME280;47349;55.640;37.692;2024-01-06T10:13:45;98840.91;;;-15.09;83.07
61484;BME280;47349;55.640;37.692;2024-01-06T10:17:06;98812.25;;;-15.28;83.96
61484;BME280;47349;55.640;37.692;2024-01-06T10:20:06;98806.19;;;-15.24;83.64
61484;BME280;47349;55.640;37.692;2024-01-06T10:23:45;98817.28;;;-15.23;84.45
61484;BME280;47349;55.640;37.692;2024-01-06T10:26:32;98824.88;;;-15.17;84.73
61484;BME280;47349;55.640;37.692;2024-01-06T10:29:47;98833.44;;;-15.18;84.25
61484;BME280;47349;55.640;37.692;2024-01-06T10:33:14;98809.94;;;-15.37;84.45
61484;BME280;47349;55.640;37.692;2024-01-06T10:36:12;98808.84;;;-15.28;85.21
61484;BME280;47349;55.640;37.692;2024-01-06T10:39:43;98817.28;;;-15.23;84.78
61484;BME280;47349;55.640;37.692;2024-01-06T10:42:19;98812.25;;;-15.28;84.87
61484;BME280;47349;55.640;37.692;2024-01-06T10:44:48;98780.91;;;-15.41;85.31
61484;BME280;47349;55.640;37.692;2024-01-06T10:47:27;98801.25;;;-15.33;86.03
61484;BME280;47349;55.640;37.692;2024-01-06T10:50:37;98785.28;;;-15.44;86.23
61484;BME280;47349;55.640;37.692;2024-01-06T10:53:12;98781.94;;;-15.48;86.74
61484;BME280;47349;55.640;37.692;2024-01-06T10:56:22;98799.28;;;-15.22;87.80
61484;BME280;47349;55.640;37.692;2024-01-06T10:59:06;98780.09;;;-15.43;86.18
61484;BME280;47349;55.640;37.692;2024-01-06T11:02:12;98796.50;;;-15.13;86.60
61484;BME280;47349;55.640;37.692;2024-01-06T11:07:57;98800.28;;;-14.93;84.80
61484;BME280;47349;55.640;37.692;2024-01-06T11:10:47;98782.34;;;-14.96;83.81
61484;BME280;47349;55.640;37.692;2024-01-06T11:16:42;98799.91;;;-15.14;84.92
61484;BME280;47349;55.640;37.692;2024-01-06T11:22:39;98803.69;;;-15.27;86.01
61484;BME280;47349;55.640;37.692;2024-01-06T11:25:43;98788.41;;;-15.32;85.20
61484;BME280;47349;55.640;37.692;2024-01-06T11:29:05;98779.25;;;-15.43;85.84
61484;BME280;47349;55.640;37.692;2024-01-06T11:32:34;98763.25;;;-15.54;86.55
61484;BME280;47349;55.640;37.692;2024-01-06T11:36:07;98776.41;;;-15.67;86.36
61484;BME280;47349;55.640;37.692;2024-01-06T11:40:08;98796.66;;;-15.54;86.49
61484;BME280;47349;55.640;37.692;2024-01-06T11:43:40;98799.13;;;-15.50;86.65
61484;BME280;47349;55.640;37.692;2024-01-06T11:46:34;98778.78;;;-15.59;86.96
61484;BME280;47349;55.640;37.692;2024-01-06T11:49:29;98802.59;;;-15.52;86.21
61484;BME280;47349;55.640;37.692;2024-01-06T11:52:37;98806.72;;;-15.45;86.13
61484;BME280;47349;55.640;37.692;2024-01-06T11:55:32;98794.16;;;-15.58;86.38
61484;BME280;47349;55.640;37.692;2024-01-06T11:59:03;98810.75;;;-15.35;86.75
61484;BME280;47349;55.640;37.692;2024-01-06T12:02:39;98816.56;;;-15.28;86.62
61484;BME280;47349;55.640;37.692;2024-01-06T12:06:02;98815.03;;;-15.36;86.89
61484;BME280;47349;55.640;37.692;2024-01-06T12:12:26;98806.59;;;-15.41;87.39
61484;BME280;47349;55.640;37.692;2024-01-06T12:15:13;98825.28;;;-15.34;87.03
61484;BME280;47349;55.640;37.692;2024-01-06T12:18:11;98816.25;;;-15.52;87.78
61484;BME280;47349;55.640;37.692;2024-01-06T12:21:05;98809.19;;;-15.42;88.00
61484;BME280;47349;55.640;37.692;2024-01-06T12:23:49;98812.00;;;-15.53;87.99
61484;BME280;47349;55.640;37.692;2024-01-06T12:27:07;98832.19;;;-15.38;88.25
61484;BME280;47349;55.640;37.692;2024-01-06T12:30:40;98823.66;;;-15.38;88.59
61484;BME280;47349;55.640;37.692;2024-01-06T12:33:55;98836.59;;;-15.41;89.18
61484;BME280;47349;55.640;37.692;2024-01-06T12:37:05;98820.91;;;-15.31;89.73
61484;BME280;47349;55.640;37.692;2024-01-06T12:39:59;98814.19;;;-15.36;89.17
61484;BME280;47349;55.640;37.692;2024-01-06T12:43:42;98829.47;;;-15.30;89.10
61484;BME280;47349;55.640;37.692;2024-01-06T12:47:05;98815.38;;;-15.49;89.04
61484;BME280;47349;55.640;37.692;2024-01-06T12:50:02;98836.66;;;-15.44;89.45
61484;BME280;47349;55.640;37.692;2024-01-06T12:53:04;98814.56;;;-15.51;90.21
61484;BME280;47349;55.640;37.692;2024-01-06T12:56:05;98840.00;;;-15.42;90.31
61484;BME280;47349;55.640;37.692;2024-01-06T12:58:48;98826.41;;;-15.46;89.90
61484;BME280;47349;55.640;37.692;2024-01-06T13:01:18;98822.28;;;-15.53;90.36
61484;BME280;47349;55.640;37.692;2024-01-06T13:03:52;98830.03;;;-15.54;90.69
61484;BME280;47349;55.640;37.692;2024-01-06T13:06:35;98863.97;;;-15.40;90.62
61484;BME280;47349;55.640;37.692;2024-01-06T13:09:08;98840.31;;;-15.54;90.49
61484;BME280;47349;55.640;37.692;2024-01-06T13:11:39;98850.22;;;-15.39;90.67
61484;BME280;47349;55.640;37.692;2024-01-06T13:14:14;98851.06;;;-15.37;90.05
61484;BME280;47349;55.640;37.692;2024-01-06T13:16:49;98868.25;;;-15.41;90.44
61484;BME280;47349;55.640;37.692;2024-01-06T13:19:26;98852.34;;;-15.57;89.82
61484;BME280;47349;55.640;37.692;2024-01-06T13:22:18;98855.97;;;-15.64;90.75
61484;BME280;47349;55.640;37.692;2024-01-06T13:25:16;98836.50;;;-15.74;90.68
61484;BME280;47349;55.640;37.692;2024-01-06T13:28:07;98860.91;;;-15.58;91.00
61484;BME280;47349;55.640;37.692;2024-01-06T13:30:39;98841.44;;;-15.65;91.42
61484;BME280;47349;55.640;37.692;2024-01-06T13:33:29;98842.94;;;-15.58;91.35
61484;BME280;47349;55.640;37.692;2024-01-06T13:36:08;98832.91;;;-15.67;91.34
61484;BME280;47349;55.640;37.692;2024-01-06T13:38:39;98847.09;;;-15.52;91.17
61484;BME280;47349;55.640;37.692;2024-01-06T13:41:15;98842.28;;;-15.64;90.77
61484;BME280;47349;55.640;37.692;2024-01-06T13:43:42;98864.13;;;-15.48;90.89
61484;BME280;47349;55.640;37.692;2024-01-06T13:46:53;98856.56;;;-15.54;90.56
61484;BME280;47349;55.640;37.692;2024-01-06T13:49:43;98862.75;;;-15.63;90.43
61484;BME280;47349;55.640;37.692;2024-01-06T13:52:35;98850.28;;;-15.78;90.97
61484;BME280;47349;55.640;37.692;2024-01-06T13:55:18;98845.94;;;-15.76;91.38
61484;BME280;47349;55.640;37.692;2024-01-06T13:58:10;98869.75;;;-15.68;91.64
61484;BME280;47349;55.640;37.692;2024-01-06T14:00:57;98834.09;;;-15.80;91.39
61484;BME280;47349;55.640;37.692;2024-01-06T14:03:44;98854.41;;;-15.71;91.49
61484;BME280;47349;55.640;37.692;2024-01-06T14:06:27;98871.38;;;-15.64;91.21
61484;BME280;47349;55.640;37.692;2024-01-06T14:09:11;98853.53;;;-15.70;91.56
61484;BME280;47349;55.640;37.692;2024-01-06T14:12:19;98846.72;;;-15.72;91.18
61484;BME280;47349;55.640;37.692;2024-01-06T14:14:47;98863.59;;;-15.62;90.89
61484;BME280;47349;55.640;37.692;2024-01-06T14:17:51;98874.78;;;-15.63;91.12
61484;BME280;47349;55.640;37.692;2024-01-06T14:20:36;98874.69;;;-15.60;90.90
61484;BME280;47349;55.640;37.692;2024-01-06T14:23:13;98879.13;;;-15.67;90.83
61484;BME280;47349;55.640;37.692;2024-01-06T14:25:55;98902.78;;;-15.54;91.44
61484;BME280;47349;55.640;37.692;2024-01-06T14:28:25;98879.78;;;-15.59;91.06
61484;BME280;47349;55.640;37.692;2024-01-06T14:31:15;98873.13;;;-15.66;91.58
61484;BME280;47349;55.640;37.692;2024-01-06T14:33:58;98893.25;;;-15.49;92.14
61484;BME280;47349;55.640;37.692;2024-01-06T14:36:48;98887.41;;;-15.56;90.91
61484;BME280;47349;55.640;37.692;2024-01-06T14:39:32;98881.63;;;-15.64;90.26
61484;BME280;47349;55.640;37.692;2024-01-06T14:42:01;98882.31;;;-15.57;90.82
61484;BME280;47349;55.640;37.692;2024-01-06T14:44:43;98901.88;;;-15.51;90.55
61484;BME280;47349;55.640;37.692;2024-01-06T14:47:25;98859.56;;;-15.71;90.14
61484;BME280;47349;55.640;37.692;2024-01-06T14:50:22;98874.22;;;-15.77;90.97
61484;BME280;47349;55.640;37.692;2024-01-06T14:53:16;98896.94;;;-15.61;90.57
61484;BME280;47349;55.640;37.692;2024-01-06T14:55:44;98897.59;;;-15.51;90.85
61484;BME280;47349;55.640;37.692;2024-01-06T14:58:43;98897.41;;;-15.43;90.63
61484;BME280;47349;55.640;37.692;2024-01-06T15:01:35;98874.41;;;-15.48;89.98
61484;BME280;47349;55.640;37.692;2024-01-06T15:04:40;98886.34;;;-15.45;89.17
61484;BME280;47349;55.640;37.692;2024-01-06T15:08:12;98871.81;;;-15.46;89.56
61484;BME280;47349;55.640;37.692;2024-01-06T15:11:21;98899.19;;;-15.45;89.15
61484;BME280;47349;55.640;37.692;2024-01-06T15:14:21;98895.63;;;-15.40;89.34
61484;BME280;47349;55.640;37.692;2024-01-06T15:17:12;98915.91;;;-15.27;89.87
61484;BME280;47349;55.640;37.692;2024-01-06T15:19:57;98900.50;;;-15.27;89.49
61484;BME280;47349;55.640;37.692;2024-01-06T15:23:02;98902.81;;;-15.18;90.20
61484;BME280;47349;55.640;37.692;2024-01-06T15:25:48;98882.53;;;-15.29;90.56
61484;BME280;47349;55.640;37.692;2024-01-06T15:28:58;98897.00;;;-15.25;91.38
61484;BME280;47349;55.640;37.692;2024-01-06T15:32:00;98903.16;;;-15.32;92.10
61484;BME280;47349;55.640;37.692;2024-01-06T15:35:36;98913.94;;;-15.16;91.46
61484;BME280;47349;55.640;37.692;2024-01-06T15:38:38;98907.94;;;-15.17;92.06
61484;BME280;47349;55.640;37.692;2024-01-06T15:41:40;98902.75;;;-15.15;92.42
61484;BME280;47349;55.640;37.692;2024-01-06T15:44:42;98927.47;;;-15.10;93.08
61484;BME280;47349;55.640;37.692;2024-01-06T15:47:44;98903.69;;;-15.18;93.43
61484;BME280;47349;55.640;37.692;2024-01-06T15:50:50;98913.09;;;-15.17;93.05
61484;BME280;47349;55.640;37.692;2024-01-06T15:53:48;98910.53;;;-15.18;93.11
61484;BME280;47349;55.640;37.692;2024-01-06T15:56:49;98913.78;;;-15.10;93.25
61484;BME280;47349;55.640;37.692;2024-01-06T16:00:20;98935.84;;;-15.01;93.32
61484;BME280;47349;55.640;37.692;2024-01-06T16:03:12;98919.97;;;-15.19;93.09
61484;BME280;47349;55.640;37.692;2024-01-06T16:06:31;98918.88;;;-15.09;93.54
61484;BME280;47349;55.640;37.692;2024-01-06T16:09:17;98922.53;;;-15.17;93.00
61484;BME280;47349;55.640;37.692;2024-01-06T16:11:52;98933.75;;;-15.21;93.38
61484;BME280;47349;55.640;37.692;2024-01-06T16:14:49;98940.31;;;-15.10;94.21
61484;BME280;47349;55.640;37.692;2024-01-06T16:17:44;98968.44;;;-15.04;94.27
61484;BME280;47349;55.640;37.692;2024-01-06T16:20:31;98941.72;;;-14.96;94.69
61484;BME280;47349;55.640;37.692;2024-01-06T16:23:13;98942.75;;;-15.04;94.33
61484;BME280;47349;55.640;37.692;2024-01-06T16:28:52;98971.09;;;-15.07;94.90
61484;BME280;47349;55.640;37.692;2024-01-06T16:31:26;98952.53;;;-15.18;94.92
61484;BME280;47349;55.640;37.692;2024-01-06T16:33:57;98959.25;;;-15.14;94.79
61484;BME280;47349;55.640;37.692;2024-01-06T16:36:29;98980.34;;;-14.98;94.42
61484;BME280;47349;55.640;37.692;2024-01-06T16:39:20;98944.75;;;-15.16;94.31
61484;BME280;47349;55.640;37.692;2024-01-06T16:42:02;98986.47;;;-15.05;94.36
61484;BME280;47349;55.640;37.692;2024-01-06T16:44:47;98970.25;;;-15.07;94.17
61484;BME280;47349;55.640;37.692;2024-01-06T16:47:41;98971.09;;;-15.07;94.87
61484;BME280;47349;55.640;37.692;2024-01-06T16:50:41;98972.53;;;-14.95;94.97
61484;BME280;47349;55.640;37.692;2024-01-06T16:53:29;98967.38;;;-14.93;94.87
61484;BME280;47349;55.640;37.692;2024-01-06T16:56:29;98965.88;;;-15.04;95.72
61484;BME280;47349;55.640;37.692;2024-01-06T16:59:11;98945.31;;;-15.04;95.65
61484;BME280;47349;55.640;37.692;2024-01-06T17:01:53;98968.97;;;-14.89;95.65
61484;BME280;47349;55.640;37.692;2024-01-06T17:04:43;98981.97;;;-14.95;95.89
61484;BME280;47349;55.640;37.692;2024-01-06T17:07:43;98953.91;;;-15.05;96.04
61484;BME280;47349;55.640;37.692;2024-01-06T17:11:21;98974.34;;;-14.98;95.58
61484;BME280;47349;55.640;37.692;2024-01-06T17:14:27;98976.16;;;-15.04;95.65
61484;BME280;47349;55.640;37.692;2024-01-06T17:17:47;98981.94;;;-14.94;96.21
61484;BME280;47349;55.640;37.692;2024-01-06T17:21:00;98986.22;;;-14.94;95.60
61484;BME280;47349;55.640;37.692;2024-01-06T17:23:49;98980.38;;;-15.01;95.15
61484;BME280;47349;55.640;37.692;2024-01-06T17:27:14;98963.50;;;-15.11;95.15
61484;BME280;47349;55.640;37.692;2024-01-06T17:30:23;99008.63;;;-14.99;95.01
61484;BME280;47349;55.640;37.692;2024-01-06T17:33:29;98973.84;;;-15.14;95.73
61484;BME280;47349;55.640;37.692;2024-01-06T17:36:50;98981.00;;;-15.28;95.62
61484;BME280;47349;55.640;37.692;2024-01-06T17:39:38;98989.63;;;-15.31;96.12
61484;BME280;47349;55.640;37.692;2024-01-06T17:42:40;98978.53;;;-15.33;96.35
61484;BME280;47349;55.640;37.692;2024-01-06T17:45:26;98965.06;;;-15.44;96.27
61484;BME280;47349;55.640;37.692;2024-01-06T17:48:06;98987.16;;;-15.36;97.16
61484;BME280;47349;55.640;37.692;2024-01-06T17:50:52;99001.47;;;-15.24;96.92
61484;BME280;47349;55.640;37.692;2024-01-06T17:53:32;98995.63;;;-15.31;97.65
61484;BME280;47349;55.640;37.692;2024-01-06T17:56:03;99018.78;;;-15.32;97.23
61484;BME280;47349;55.640;37.692;2024-01-06T17:58:34;99008.59;;;-15.37;97.65
61484;BME280;47349;55.640;37.692;2024-01-06T18:01:03;98993.69;;;-15.63;98.10
61484;BME280;47349;55.640;37.692;2024-01-06T18:03:35;98998.94;;;-15.66;98.55
61484;BME280;47349;55.640;37.692;2024-01-06T18:06:05;99005.66;;;-15.60;98.94
61484;BME280;47349;55.640;37.692;2024-01-06T18:08:40;99003.44;;;-15.77;98.57
61484;BME280;47349;55.640;37.692;2024-01-06T18:11:27;99007.94;;;-15.88;98.53
61484;BME280;47349;55.640;37.692;2024-01-06T18:14:35;99025.19;;;-15.96;99.11
61484;BME280;47349;55.640;37.692;2024-01-06T18:17:10;99026.06;;;-15.97;99.26
61484;BME280;47349;55.640;37.692;2024-01-06T18:19:45;99017.50;;;-15.96;99.14
61484;BME280;47349;55.640;37.692;2024-01-06T18:22:30;99016.66;;;-15.97;100.00
61484;BME280;47349;55.640;37.692;2024-01-06T18:25:13;99033.66;;;-15.91;98.64
61484;BME280;47349;55.640;37.692;2024-01-06T18:27:52;99006.50;;;-16.03;98.48
61484;BME280;47349;55.640;37.692;2024-01-06T18:30:41;99015.81;;;-15.97;98.81
61484;BME280;47349;55.640;37.692;2024-01-06T18:33:14;99032.97;;;-15.99;98.13
61484;BME280;47349;55.640;37.692;2024-01-06T18:36:01;99047.56;;;-16.03;98.43
61484;BME280;47349;55.640;37.692;2024-01-06T18:38:33;99020.31;;;-16.10;98.30
61484;BME280;47349;55.640;37.692;2024-01-06T18:41:04;99023.06;;;-16.19;97.26
61484;BME280;47349;55.640;37.692;2024-01-06T18:43:39;99025.75;;;-16.27;96.91
61484;BME280;47349;55.640;37.692;2024-01-06T18:46:42;99048.59;;;-16.15;96.79
61484;BME280;47349;55.640;37.692;2024-01-06T18:49:12;99014.69;;;-16.29;96.19
61484;BME280;47349;55.640;37.692;2024-01-06T18:51:59;99035.19;;;-16.29;96.11
61484;BME280;47349;55.640;37.692;2024-01-06T18:54:38;99040.22;;;-16.23;95.92
61484;BME280;47349;55.640;37.692;2024-01-06T18:57:27;99051.41;;;-16.27;96.19
61484;BME280;47349;55.640;37.692;2024-01-06T18:59:57;99051.50;;;-16.33;95.73
61484;BME280;47349;55.640;37.692;2024-01-06T19:02:31;99036.28;;;-16.42;96.12
61484;BME280;47349;55.640;37.692;2024-01-06T19:05:27;99016.78;;;-16.52;96.32
61484;BME280;47349;55.640;37.692;2024-01-06T19:08:11;99048.19;;;-16.38;96.26
61484;BME280;47349;55.640;37.692;2024-01-06T19:10:51;99052.53;;;-16.43;96.06
61484;BME280;47349;55.640;37.692;2024-01-06T19:13:21;99033.19;;;-16.63;96.14
61484;BME280;47349;55.640;37.692;2024-01-06T19:16:12;99053.69;;;-16.64;96.59
61484;BME280;47349;55.640;37.692;2024-01-06T19:53:44;99076.44;;;-16.97;92.82
61484;BME280;47349;55.640;37.692;2024-01-06T19:56:38;99084.19;;;-17.01;92.17
61484;BME280;47349;55.640;37.692;2024-01-06T19:59:17;99088.38;;;-16.96;91.61
61484;BME280;47349;55.640;37.692;2024-01-06T20:01:48;99098.75;;;-17.05;90.84
61484;BME280;47349;55.640;37.692;2024-01-06T20:04:18;99100.34;;;-16.96;92.73
61484;BME280;47349;55.640;37.692;2024-01-06T20:10:26;99128.66;;;-17.05;92.43
61484;BME280;47349;55.640;37.692;2024-01-06T20:13:00;99121.09;;;-17.18;92.77
61484;BME280;47349;55.640;37.692;2024-01-06T20:15:28;99115.16;;;-17.20;93.21
61484;BME280;47349;55.640;37.692;2024-01-06T20:20:56;99116.06;;;-17.24;92.74
61484;BME280;47349;55.640;37.692;2024-01-06T20:23:27;99134.00;;;-17.27;93.69
61484;BME280;47349;55.640;37.692;2024-01-06T20:25:55;99106.75;;;-17.32;94.18
61484;BME280;47349;55.640;37.692;2024-01-06T20:28:24;99107.66;;;-17.36;94.66
61484;BME280;47349;55.640;37.692;2024-01-06T22:01:39;99229.84;;;-17.48;93.84
61484;BME280;47349;55.640;37.692;2024-01-06T22:04:11;99248.66;;;-17.53;92.46
61484;BME280;47349;55.640;37.692;2024-01-06T22:06:39;99239.41;;;-17.71;92.55
61484;BME280;47349;55.640;37.692;2024-01-06T22:44:32;99283.09;;;-17.91;92.67
61484;BME280;47349;55.640;37.692;2024-01-06T23:39:12;99372.03;;;-18.48;92.67